createdAt,value
2019-02-17T00:00:37.219Z,57.46
2019-02-17T00:01:45.277Z,57.74
2019-02-17T00:02:53.316Z,57.08
2019-02-17T00:04:01.389Z,56.80
2019-02-17T00:05:09.419Z,56.13
2019-02-17T00:06:17.569Z,56.23
2019-02-17T00:07:25.538Z,55.38
2019-02-17T00:08:33.592Z,55.29
2019-02-17T00:09:41.642Z,55.38
2019-02-17T00:10:49.695Z,54.44
2019-02-17T00:11:57.764Z,52.92
2019-02-17T00:13:05.821Z,54.06
2019-02-17T00:14:13.841Z,55.76
2019-02-17T00:15:21.941Z,57.84
2019-02-17T00:16:29.958Z,59.44
2019-02-17T00:17:38.001Z,59.54
2019-02-17T00:18:46.072Z,60.58
2019-02-17T00:19:54.112Z,60.01
2019-02-17T00:21:02.154Z,57.55
2019-02-17T00:22:10.202Z,55.94
2019-02-17T00:23:18.271Z,55.38
2019-02-17T00:24:26.314Z,55.10
2019-02-17T00:25:34.391Z,55.19
2019-02-17T00:26:42.432Z,54.53
2019-02-17T00:27:50.479Z,53.96
2019-02-17T00:28:59.631Z,52.83
2019-02-17T00:30:06.577Z,52.36
2019-02-17T00:31:14.632Z,52.64
2019-02-17T00:32:22.695Z,53.20
2019-02-17T00:33:30.744Z,54.25
2019-02-17T00:34:38.791Z,55.19
2019-02-17T00:35:46.886Z,55.47
2019-02-17T00:36:54.894Z,55.76
2019-02-17T00:38:02.952Z,56.70
2019-02-17T00:39:10.991Z,58.31
2019-02-17T00:40:19.047Z,58.97
2019-02-17T00:41:27.094Z,58.97
2019-02-17T00:42:35.157Z,59.73
2019-02-17T00:43:43.195Z,60.58
2019-02-17T00:44:51.259Z,61.90
2019-02-17T00:45:59.297Z,62.56
2019-02-17T00:47:07.366Z,61.71
2019-02-17T00:48:15.415Z,61.24
2019-02-17T00:49:23.472Z,58.87
2019-02-17T00:50:31.516Z,56.23
2019-02-17T00:51:39.580Z,56.80
2019-02-17T00:52:47.630Z,57.84
2019-02-17T00:53:55.670Z,59.25
2019-02-17T00:55:03.728Z,60.67
2019-02-17T00:56:11.764Z,61.15
2019-02-17T00:57:19.827Z,61.52
2019-02-17T00:58:27.897Z,61.90
2019-02-17T00:59:35.947Z,60.20
2019-02-17T01:00:43.994Z,59.35
2019-02-17T01:01:52.018Z,59.35
2019-02-17T01:03:00.108Z,59.35
2019-02-17T01:04:08.157Z,59.92
2019-02-17T01:05:16.204Z,59.73
2019-02-17T01:06:24.270Z,61.33
2019-02-17T01:07:32.273Z,61.33
2019-02-17T01:08:40.357Z,61.05
2019-02-17T01:09:48.404Z,60.86
2019-02-17T01:10:56.464Z,61.11
2019-02-17T01:12:04.510Z,61.40
2019-02-17T01:13:12.549Z,59.44
2019-02-17T01:14:20.606Z,59.16
2019-02-17T01:15:28.668Z,58.75
2019-02-17T01:16:36.700Z,59.79
2019-02-17T01:17:44.782Z,59.03
2019-02-17T01:18:52.833Z,58.18
2019-02-17T01:20:00.872Z,58.18
2019-02-17T01:21:08.947Z,58.75
2019-02-17T01:22:16.978Z,58.56
2019-02-17T01:23:25.017Z,58.37
2019-02-17T01:24:33.087Z,59.03
2019-02-17T01:25:41.128Z,59.13
2019-02-17T01:26:49.201Z,58.94
2019-02-17T01:27:57.244Z,57.81
2019-02-17T01:29:05.288Z,57.71
2019-02-17T01:30:13.397Z,58.18
2019-02-17T01:31:21.383Z,56.77
2019-02-17T01:32:29.444Z,56.32
2019-02-17T01:33:37.489Z,56.30
2019-02-17T01:34:45.557Z,55.54
2019-02-17T01:35:53.595Z,55.73
2019-02-17T01:37:01.641Z,56.86
2019-02-17T01:38:09.696Z,57.05
2019-02-17T01:39:17.793Z,57.81
2019-02-17T01:40:25.797Z,58.09
2019-02-17T01:41:33.871Z,59.22
2019-02-17T01:42:41.903Z,59.51
2019-02-17T01:43:49.967Z,59.41
2019-02-17T01:44:58.024Z,60.17
2019-02-17T01:46:06.083Z,61.87
2019-02-17T01:47:14.125Z,61.40
2019-02-17T01:48:22.159Z,59.70
2019-02-17T01:49:30.230Z,58.75
2019-02-17T01:50:38.286Z,57.62
2019-02-17T01:51:46.333Z,58.84
2019-02-17T01:52:54.386Z,58.56
2019-02-17T01:54:02.472Z,58.47
2019-02-17T01:55:10.480Z,58.94
2019-02-17T01:56:18.551Z,58.84
2019-02-17T01:57:26.594Z,58.18
2019-02-17T01:58:34.651Z,57.62
2019-02-17T01:59:42.694Z,57.71
2019-02-17T02:00:50.782Z,57.53
2019-02-17T02:01:58.799Z,57.62
2019-02-17T02:03:06.860Z,57.05
2019-02-17T02:04:14.902Z,56.86
2019-02-17T02:05:22.951Z,57.24
2019-02-17T02:06:31.001Z,57.05
2019-02-17T02:07:39.094Z,56.77
2019-02-17T02:08:47.106Z,57.43
2019-02-17T02:09:55.166Z,58.56
2019-02-17T02:11:03.209Z,58.84
2019-02-17T02:12:11.260Z,58.84
2019-02-17T02:13:19.317Z,58.47
2019-02-17T02:14:27.370Z,57.34
2019-02-17T02:15:35.420Z,57.34
2019-02-17T02:16:43.467Z,57.24
2019-02-17T02:17:51.524Z,58.37
2019-02-17T02:18:59.573Z,58.84
2019-02-17T02:20:07.628Z,59.13
2019-02-17T02:21:15.677Z,58.94
2019-02-17T02:22:23.763Z,58.65
2019-02-17T02:23:31.761Z,57.05
2019-02-17T02:24:39.836Z,56.11
2019-02-17T02:25:47.890Z,54.97
2019-02-17T02:26:55.941Z,53.94
2019-02-17T02:28:03.991Z,54.13
2019-02-17T02:29:12.055Z,53.56
2019-02-17T02:30:20.095Z,53.84
2019-02-17T02:31:28.165Z,54.32
2019-02-17T02:32:36.198Z,53.56
2019-02-17T02:33:44.246Z,53.37
2019-02-17T02:34:52.284Z,53.84
2019-02-17T02:36:00.349Z,53.84
2019-02-17T02:37:08.400Z,54.03
2019-02-17T02:38:16.468Z,54.22
2019-02-17T02:39:24.523Z,55.44
2019-02-17T02:40:32.563Z,55.82
2019-02-17T02:41:40.610Z,56.11
2019-02-17T02:42:48.665Z,56.30
2019-02-17T02:43:56.709Z,57.34
2019-02-17T02:45:04.782Z,58.75
2019-02-17T02:46:12.818Z,58.65
2019-02-17T02:47:20.863Z,58.09
2019-02-17T02:48:28.914Z,59.32
2019-02-17T02:49:36.991Z,58.75
2019-02-17T02:50:45.024Z,57.34
2019-02-17T02:51:53.065Z,57.34
2019-02-17T02:53:01.129Z,56.86
2019-02-17T02:54:09.177Z,59.13
2019-02-17T02:55:17.246Z,59.13
2019-02-17T02:56:25.284Z,58.28
2019-02-17T02:57:33.382Z,57.24
2019-02-17T02:58:41.366Z,57.81
2019-02-17T02:59:52.290Z,58.18
2019-02-17T03:00:57.498Z,58.47
2019-02-17T03:02:05.539Z,57.43
2019-02-17T03:03:13.590Z,57.34
2019-02-17T03:04:21.631Z,57.15
2019-02-17T03:05:29.695Z,57.24
2019-02-17T03:06:37.755Z,56.30
2019-02-17T03:07:45.789Z,54.97
2019-02-17T03:08:53.859Z,55.26
2019-02-17T03:10:01.895Z,54.22
2019-02-17T03:11:09.974Z,51.48
2019-02-17T03:12:17.998Z,50.72
2019-02-17T03:13:26.074Z,52.14
2019-02-17T03:14:34.106Z,52.70
2019-02-17T03:15:42.168Z,54.03
2019-02-17T03:16:50.204Z,53.18
2019-02-17T03:17:58.266Z,53.27
2019-02-17T03:19:06.340Z,53.37
2019-02-17T03:20:14.371Z,53.46
2019-02-17T03:21:22.419Z,52.04
2019-02-17T03:22:30.459Z,51.67
2019-02-17T03:23:38.508Z,52.61
2019-02-17T03:24:46.594Z,53.65
2019-02-17T03:25:54.632Z,54.41
2019-02-17T03:27:02.698Z,53.94
2019-02-17T03:28:10.740Z,55.07
2019-02-17T03:29:18.794Z,54.97
2019-02-17T03:30:26.843Z,53.56
2019-02-17T03:31:34.881Z,52.33
2019-02-17T03:32:42.940Z,54.88
2019-02-17T03:33:51.000Z,53.84
2019-02-17T03:34:59.032Z,56.11
2019-02-17T03:36:07.090Z,56.30
2019-02-17T03:37:15.150Z,54.97
2019-02-17T03:38:23.237Z,53.94
2019-02-17T03:39:31.235Z,55.16
2019-02-17T03:40:39.301Z,56.86
2019-02-17T03:41:47.354Z,56.58
2019-02-17T03:42:55.395Z,56.11
2019-02-17T03:44:03.456Z,55.73
2019-02-17T03:45:11.484Z,55.63
2019-02-17T03:46:19.558Z,55.44
2019-02-17T03:47:27.607Z,56.77
2019-02-17T03:48:35.670Z,56.58
2019-02-17T03:49:43.709Z,56.77
2019-02-17T03:50:51.768Z,57.81
2019-02-17T03:51:59.805Z,56.96
2019-02-17T03:53:07.873Z,57.24
2019-02-17T03:54:15.911Z,56.30
2019-02-17T03:55:23.975Z,56.30
2019-02-17T03:56:32.004Z,57.05
2019-02-17T03:57:40.113Z,57.53
2019-02-17T03:58:48.127Z,57.90
2019-02-17T03:59:56.250Z,59.32
2019-02-17T04:01:04.237Z,59.79
2019-02-17T04:02:12.258Z,59.98
2019-02-17T04:03:20.313Z,59.89
2019-02-17T04:04:28.380Z,58.18
2019-02-17T04:05:36.419Z,56.30
2019-02-17T04:06:44.485Z,54.03
2019-02-17T04:07:52.529Z,53.37
2019-02-17T04:09:00.586Z,56.39
2019-02-17T04:10:08.643Z,55.73
2019-02-17T04:11:16.695Z,54.22
2019-02-17T04:12:24.752Z,53.08
2019-02-17T04:13:32.788Z,52.61
2019-02-17T04:14:40.856Z,52.51
2019-02-17T04:15:48.892Z,53.94
2019-02-17T04:16:56.947Z,54.32
2019-02-17T04:18:05.002Z,57.34
2019-02-17T04:19:13.086Z,58.37
2019-02-17T04:20:21.100Z,59.98
2019-02-17T04:21:29.173Z,61.68
2019-02-17T04:22:37.201Z,62.91
2019-02-17T04:23:45.267Z,63.10
2019-02-17T04:24:53.294Z,64.14
2019-02-17T04:26:01.339Z,64.89
2019-02-17T04:27:09.417Z,64.04
2019-02-17T04:28:17.472Z,63.00
2019-02-17T04:29:25.508Z,63.00
2019-02-17T04:30:33.559Z,63.07
2019-02-17T04:31:41.593Z,63.35
2019-02-17T04:32:49.668Z,64.11
2019-02-17T04:33:57.715Z,62.12
2019-02-17T04:35:05.785Z,62.78
2019-02-17T04:36:13.822Z,59.57
2019-02-17T04:37:21.850Z,59.10
2019-02-17T04:38:29.925Z,60.52
2019-02-17T04:39:37.981Z,61.18
2019-02-17T04:40:46.032Z,61.27
2019-02-17T04:41:54.093Z,57.68
2019-02-17T04:43:02.119Z,57.31
2019-02-17T04:44:10.191Z,56.17
2019-02-17T04:45:18.222Z,56.17
2019-02-17T04:46:26.285Z,57.03
2019-02-17T04:47:34.325Z,58.53
2019-02-17T04:48:42.376Z,57.78
2019-02-17T04:49:50.430Z,57.21
2019-02-17T04:50:58.491Z,55.23
2019-02-17T04:52:06.548Z,55.23
2019-02-17T04:53:14.586Z,55.23
2019-02-17T04:54:22.635Z,55.23
2019-02-17T04:55:30.690Z,55.61
2019-02-17T04:56:38.766Z,55.42
2019-02-17T04:57:46.818Z,57.78
2019-02-17T04:58:54.867Z,56.74
2019-02-17T05:00:02.908Z,57.87
2019-02-17T05:01:10.967Z,57.31
2019-02-17T05:02:18.994Z,55.32
2019-02-17T05:03:27.058Z,54.00
2019-02-17T05:04:35.096Z,53.72
2019-02-17T05:05:43.172Z,55.04
2019-02-17T05:06:51.194Z,54.28
2019-02-17T05:07:59.281Z,55.42
2019-02-17T05:09:07.318Z,56.74
2019-02-17T05:10:15.362Z,57.12
2019-02-17T05:11:23.409Z,58.25
2019-02-17T05:12:31.464Z,59.00
2019-02-17T05:13:39.516Z,59.10
2019-02-17T05:14:47.566Z,54.94
2019-02-17T05:15:55.618Z,54.94
2019-02-17T05:17:03.678Z,54.00
2019-02-17T05:18:11.700Z,53.34
2019-02-17T05:19:19.780Z,50.70
2019-02-17T05:20:27.811Z,50.13
2019-02-17T05:21:35.880Z,51.83
2019-02-17T05:22:43.942Z,52.59
2019-02-17T05:23:51.982Z,53.53
2019-02-17T05:25:00.035Z,53.63
2019-02-17T05:26:08.085Z,54.00
2019-02-17T05:27:16.129Z,50.70
2019-02-17T05:28:24.188Z,51.07
2019-02-17T05:29:32.227Z,51.64
2019-02-17T05:30:51.625Z,51.07
2019-02-17T05:31:48.334Z,50.79
2019-02-17T05:32:56.389Z,51.36
2019-02-17T05:34:04.458Z,51.17
2019-02-17T05:35:12.480Z,52.68
2019-02-17T05:36:20.537Z,50.70
2019-02-17T05:37:28.681Z,50.32
2019-02-17T05:38:36.658Z,47.86
2019-02-17T05:39:44.692Z,47.30
2019-02-17T05:40:52.757Z,48.71
2019-02-17T05:42:00.838Z,50.51
2019-02-17T05:43:08.851Z,53.81
2019-02-17T05:44:16.911Z,54.10
2019-02-17T05:45:24.973Z,53.25
2019-02-17T05:46:32.992Z,55.04
2019-02-17T05:47:41.077Z,57.03
2019-02-17T05:48:49.121Z,56.36
2019-02-17T05:49:57.167Z,57.12
2019-02-17T05:51:05.268Z,55.70
2019-02-17T05:52:13.264Z,55.42
2019-02-17T05:53:21.300Z,56.27
2019-02-17T05:54:29.378Z,55.61
2019-02-17T05:55:37.428Z,56.93
2019-02-17T05:56:45.476Z,57.31
2019-02-17T05:57:53.521Z,53.72
2019-02-17T05:59:01.569Z,54.00
2019-02-17T06:00:09.626Z,55.32
2019-02-17T06:01:17.681Z,51.45
2019-02-17T06:02:25.719Z,51.92
2019-02-17T06:03:33.790Z,50.32
2019-02-17T06:04:41.812Z,51.73
2019-02-17T06:05:49.884Z,55.13
2019-02-17T06:06:57.924Z,55.61
2019-02-17T06:08:05.976Z,58.44
2019-02-17T06:09:14.054Z,56.65
2019-02-17T06:10:22.051Z,55.89
2019-02-17T06:11:30.141Z,56.84
2019-02-17T06:12:38.185Z,57.40
2019-02-17T06:13:46.247Z,59.67
2019-02-17T06:14:54.294Z,59.57
2019-02-17T06:16:02.342Z,58.72
2019-02-17T06:17:10.398Z,57.78
2019-02-17T06:18:18.439Z,57.68
2019-02-17T06:19:26.488Z,57.78
2019-02-17T06:20:34.549Z,57.78
2019-02-17T06:21:42.613Z,57.03
2019-02-17T06:22:50.659Z,57.40
2019-02-17T06:23:58.689Z,57.40
2019-02-17T06:25:06.734Z,57.50
2019-02-17T06:26:14.793Z,54.38
2019-02-17T06:27:22.850Z,55.42
2019-02-17T06:28:30.914Z,57.97
2019-02-17T06:29:38.959Z,57.87
2019-02-17T06:30:46.995Z,58.91
2019-02-17T06:31:55.059Z,59.29
2019-02-17T06:33:03.104Z,59.57
2019-02-17T06:34:11.164Z,59.76
2019-02-17T06:35:19.204Z,57.31
2019-02-17T06:36:27.264Z,57.68
2019-02-17T06:37:35.292Z,55.23
2019-02-17T06:38:43.383Z,53.44
2019-02-17T06:39:51.419Z,51.17
2019-02-17T06:40:59.471Z,53.25
2019-02-17T06:42:07.518Z,54.85
2019-02-17T06:43:15.571Z,53.81
2019-02-17T06:44:23.618Z,54.85
2019-02-17T06:45:31.655Z,54.85
2019-02-17T06:46:39.725Z,54.00
2019-02-17T06:47:47.775Z,55.23
2019-02-17T06:48:55.821Z,57.21
2019-02-17T06:50:03.882Z,55.23
2019-02-17T06:51:11.937Z,56.27
2019-02-17T06:52:19.988Z,57.40
2019-02-17T06:53:28.023Z,57.21
2019-02-17T06:54:36.089Z,56.93
2019-02-17T06:55:44.141Z,55.32
2019-02-17T06:56:52.189Z,52.78
2019-02-17T06:58:00.251Z,52.68
2019-02-17T06:59:08.286Z,53.34
2019-02-17T07:00:16.358Z,53.65
2019-02-17T07:01:24.963Z,53.72
2019-02-17T07:02:32.432Z,53.56
2019-02-17T07:03:40.483Z,51.29
2019-02-17T07:04:48.557Z,50.25
2019-02-17T07:05:56.734Z,47.61
2019-02-17T07:07:04.670Z,46.85
2019-02-17T07:08:12.709Z,46.85
2019-02-17T07:09:20.750Z,45.90
2019-02-17T07:10:28.800Z,47.61
2019-02-17T07:11:36.860Z,48.18
2019-02-17T07:12:44.912Z,48.74
2019-02-17T07:13:52.966Z,45.15
2019-02-17T07:15:01.010Z,46.97
2019-02-17T07:16:09.061Z,53.58
2019-02-17T07:17:17.101Z,64.36
2019-02-17T07:18:25.181Z,62.50
2019-02-17T07:19:33.206Z,77.82
2019-02-17T07:20:41.266Z,82.26
2019-02-17T07:21:49.327Z,79.99
2019-02-17T07:22:57.381Z,79.80
2019-02-17T07:24:05.439Z,76.25
2019-02-17T07:25:13.480Z,79.56
2019-02-17T07:26:21.516Z,88.55
2019-02-17T07:27:29.651Z,85.90
2019-02-17T07:28:37.654Z,98.29
2019-02-17T07:29:45.693Z,94.79
2019-02-17T07:30:53.757Z,99.99
2019-02-17T07:32:01.794Z,99.62
2019-02-17T07:33:09.861Z,99.24
2019-02-17T07:34:17.937Z,99.05
2019-02-17T07:35:25.965Z,99.99
2019-02-17T07:36:34.029Z,97.96
2019-02-17T07:37:42.064Z,95.88
2019-02-17T07:38:50.126Z,98.53
2019-02-17T07:39:58.191Z,96.35
2019-02-17T07:41:06.246Z,94.65
2019-02-17T07:42:14.286Z,99.99
2019-02-17T07:43:22.327Z,99.99
2019-02-17T07:44:30.393Z,99.99
2019-02-17T07:45:38.456Z,99.99
2019-02-17T07:46:46.513Z,99.99
2019-02-17T07:47:54.569Z,99.71
2019-02-17T07:49:02.622Z,99.99
2019-02-17T07:50:10.674Z,99.99
2019-02-17T07:51:18.732Z,99.99
2019-02-17T07:52:27.099Z,99.99
2019-02-17T07:53:34.838Z,99.99
2019-02-17T07:54:42.897Z,99.99
2019-02-17T07:55:50.958Z,99.99
2019-02-17T07:56:59.001Z,99.99
2019-02-17T07:58:07.062Z,99.99
2019-02-17T07:59:15.115Z,99.99
2019-02-17T08:00:23.171Z,99.99
2019-02-17T08:01:31.229Z,99.99
2019-02-17T08:02:39.278Z,99.99
2019-02-17T08:03:47.331Z,99.99
2019-02-17T08:04:55.387Z,99.99
2019-02-17T08:06:03.463Z,99.99
2019-02-17T08:07:11.513Z,99.99
2019-02-17T08:08:19.792Z,99.99
2019-02-17T08:09:27.613Z,99.99
2019-02-17T08:10:35.720Z,99.99
2019-02-17T08:11:43.734Z,99.99
2019-02-17T08:12:51.770Z,99.99
2019-02-17T08:13:59.863Z,99.99
2019-02-17T08:15:07.897Z,99.99
2019-02-17T08:16:15.947Z,99.99
2019-02-17T08:17:24.005Z,99.99
2019-02-17T08:18:33.689Z,99.99
2019-02-17T08:19:40.101Z,99.99
2019-02-17T08:20:48.161Z,99.99
2019-02-17T08:21:56.225Z,99.99
2019-02-17T08:23:04.306Z,99.99
2019-02-17T08:24:12.314Z,99.99
2019-02-17T08:25:21.974Z,99.48
2019-02-17T08:26:28.781Z,99.58
2019-02-17T08:27:36.498Z,99.99
2019-02-17T08:28:44.556Z,99.99
2019-02-17T08:29:52.597Z,99.99
2019-02-17T08:31:00.700Z,99.99
2019-02-17T08:32:08.729Z,99.99
2019-02-17T08:33:16.849Z,99.99
2019-02-17T08:34:24.840Z,99.99
2019-02-17T08:35:33.068Z,99.99
2019-02-17T08:36:41.086Z,98.58
2019-02-17T08:37:49.056Z,99.99
2019-02-17T08:38:57.057Z,99.99
2019-02-17T08:40:05.328Z,99.99
2019-02-17T08:41:13.156Z,99.99
2019-02-17T08:42:21.859Z,99.99
2019-02-17T08:43:29.766Z,99.99
2019-02-17T08:44:37.339Z,99.99
2019-02-17T08:45:45.502Z,99.99
2019-02-17T08:46:53.450Z,99.99
2019-02-17T08:48:01.486Z,99.99
2019-02-17T08:49:09.584Z,99.99
2019-02-17T08:50:19.886Z,99.99
2019-02-17T08:51:25.661Z,99.99
2019-02-17T08:52:33.724Z,99.99
2019-02-17T08:53:41.751Z,99.99
2019-02-17T08:54:49.847Z,99.99
2019-02-17T08:55:57.876Z,99.99
2019-02-17T08:57:05.963Z,99.99
2019-02-17T08:58:14.001Z,99.99
2019-02-17T08:59:22.036Z,99.99
2019-02-17T09:00:30.120Z,99.99
2019-02-17T09:01:40.382Z,99.99
2019-02-17T09:02:46.229Z,99.99
2019-02-17T09:03:54.271Z,99.99
2019-02-17T09:05:02.305Z,99.99
2019-02-17T09:06:10.389Z,99.99
2019-02-17T09:07:18.444Z,99.99
2019-02-17T09:08:26.508Z,99.99
2019-02-17T09:09:34.558Z,99.99
2019-02-17T09:10:42.602Z,99.99
2019-02-17T09:11:50.679Z,99.99
2019-02-17T09:12:58.730Z,99.99
2019-02-17T09:14:06.795Z,99.99
2019-02-17T09:15:14.830Z,99.99
2019-02-17T09:16:22.913Z,99.99
2019-02-17T09:17:30.948Z,99.99
2019-02-17T09:18:39.045Z,99.99
2019-02-17T09:19:47.137Z,99.99
2019-02-17T09:20:55.129Z,99.99
2019-02-17T09:22:03.174Z,99.99
2019-02-17T09:23:11.228Z,99.99
2019-02-17T09:24:19.337Z,99.99
2019-02-17T09:25:27.343Z,99.99
2019-02-17T09:26:35.439Z,99.99
2019-02-17T09:27:43.470Z,99.99
2019-02-17T09:28:51.509Z,99.99
2019-02-17T09:29:59.578Z,99.99
2019-02-17T09:31:07.629Z,99.99
2019-02-17T09:32:16.488Z,99.99
2019-02-17T09:33:23.754Z,99.99
2019-02-17T09:34:31.803Z,99.99
2019-02-17T09:35:39.862Z,99.99
2019-02-17T09:36:47.949Z,99.99
2019-02-17T09:37:55.984Z,99.99
2019-02-17T09:39:04.028Z,99.99
2019-02-17T09:40:12.064Z,99.99
2019-02-17T09:41:20.146Z,99.99
2019-02-17T09:42:28.198Z,99.99
2019-02-17T09:43:36.248Z,99.99
2019-02-17T09:44:44.309Z,99.99
2019-02-17T09:45:52.349Z,99.99
2019-02-17T09:47:00.470Z,99.99
2019-02-17T09:48:08.895Z,99.99
2019-02-17T09:49:16.543Z,99.99
2019-02-17T09:50:24.574Z,99.99
2019-02-17T09:51:32.804Z,99.99
2019-02-17T09:52:40.711Z,99.99
2019-02-17T09:53:48.777Z,99.99
2019-02-17T09:54:56.820Z,99.99
2019-02-17T09:56:04.878Z,99.99
2019-02-17T09:57:12.957Z,99.99
2019-02-17T09:58:21.009Z,99.99
2019-02-17T09:59:29.060Z,99.99
2019-02-17T10:00:37.803Z,99.99
2019-02-17T10:01:45.187Z,99.99
2019-02-17T10:02:53.238Z,99.99
2019-02-17T10:04:01.270Z,99.99
2019-02-17T10:05:09.343Z,99.99
2019-02-17T10:06:17.399Z,99.99
2019-02-17T10:07:25.461Z,99.99
2019-02-17T10:08:33.531Z,99.99
2019-02-17T10:09:41.568Z,99.99
2019-02-17T10:10:49.645Z,99.99
2019-02-17T10:11:57.698Z,99.99
2019-02-17T10:13:05.763Z,99.99
2019-02-17T10:14:13.814Z,99.99
2019-02-17T10:15:22.723Z,99.99
2019-02-17T10:16:29.933Z,99.99
2019-02-17T10:17:37.991Z,99.99
2019-02-17T10:18:46.034Z,99.99
2019-02-17T10:19:54.104Z,99.99
2019-02-17T10:21:02.147Z,99.99
2019-02-17T10:22:10.241Z,99.99
2019-02-17T10:23:18.268Z,99.99
2019-02-17T10:24:26.345Z,99.99
2019-02-17T10:25:34.398Z,99.99
2019-02-17T10:26:42.445Z,99.99
2019-02-17T10:27:50.520Z,99.99
2019-02-17T10:28:58.576Z,99.99
2019-02-17T10:30:06.634Z,99.99
2019-02-17T10:31:14.691Z,99.99
2019-02-17T10:32:22.739Z,99.99
2019-02-17T10:33:30.805Z,99.99
2019-02-17T10:34:38.869Z,99.99
2019-02-17T10:35:46.930Z,99.99
2019-02-17T10:36:55.006Z,99.99
2019-02-17T10:38:03.050Z,99.99
2019-02-17T10:39:11.091Z,99.99
2019-02-17T10:40:19.167Z,99.99
2019-02-17T10:41:27.219Z,99.99
2019-02-17T10:42:35.269Z,99.99
2019-02-17T10:43:43.368Z,99.99
2019-02-17T10:44:51.385Z,96.32
2019-02-17T10:45:59.464Z,96.03
2019-02-17T10:47:07.517Z,90.50
2019-02-17T10:48:15.583Z,99.99
2019-02-17T10:49:23.631Z,82.98
2019-02-17T10:50:31.668Z,85.93
2019-02-17T10:51:39.763Z,99.99
2019-02-17T10:52:47.820Z,89.36
2019-02-17T10:53:55.870Z,78.31
2019-02-17T10:55:03.942Z,82.21
2019-02-17T10:56:11.976Z,85.64
2019-02-17T10:57:20.047Z,89.26
2019-02-17T10:58:28.120Z,77.64
2019-02-17T10:59:36.163Z,75.30
2019-02-17T11:00:44.235Z,73.68
2019-02-17T11:01:52.297Z,78.44
2019-02-17T11:03:00.367Z,89.40
2019-02-17T11:04:08.398Z,91.79
2019-02-17T11:05:16.470Z,76.82
2019-02-17T11:06:24.523Z,81.49
2019-02-17T11:07:32.578Z,94.65
2019-02-17T11:08:40.665Z,80.26
2019-02-17T11:09:48.886Z,74.73
2019-02-17T11:10:56.768Z,72.63
2019-02-17T11:12:04.822Z,70.82
2019-02-17T11:13:12.880Z,76.25
2019-02-17T11:14:20.964Z,70.15
2019-02-17T11:15:29.012Z,69.87
2019-02-17T11:16:37.063Z,72.25
2019-02-17T11:17:45.129Z,75.87
2019-02-17T11:18:53.185Z,73.77
2019-02-17T11:20:01.290Z,71.52
2019-02-17T11:21:09.293Z,71.62
2019-02-17T11:22:23.031Z,73.72
2019-02-17T11:23:25.418Z,70.76
2019-02-17T11:24:33.499Z,70.57
2019-02-17T11:25:41.545Z,67.80
2019-02-17T11:26:49.618Z,78.49
2019-02-17T11:27:57.677Z,71.52
2019-02-17T11:29:05.742Z,71.43
2019-02-17T11:30:13.790Z,69.71
2019-02-17T11:31:21.829Z,69.23
2019-02-17T11:32:32.174Z,64.56
2019-02-17T11:33:37.982Z,68.47
2019-02-17T11:34:46.039Z,69.81
2019-02-17T11:35:54.093Z,69.90
2019-02-17T11:37:02.141Z,70.47
2019-02-17T11:38:10.222Z,67.90
2019-02-17T11:39:18.272Z,66.66
2019-02-17T11:40:26.328Z,72.19
2019-02-17T11:41:34.384Z,72.86
2019-02-17T11:42:42.462Z,67.42
2019-02-17T11:43:50.505Z,68.32
2019-02-17T11:44:58.575Z,71.14
2019-02-17T11:46:06.621Z,67.99
2019-02-17T11:47:14.698Z,67.36
2019-02-17T11:48:22.769Z,69.74
2019-02-17T11:49:30.822Z,70.42
2019-02-17T11:50:38.879Z,68.22
2019-02-17T11:51:46.924Z,66.22
2019-02-17T11:52:54.996Z,65.93
2019-02-17T11:54:03.053Z,65.74
2019-02-17T11:55:11.105Z,63.83
2019-02-17T11:56:19.215Z,63.92
2019-02-17T11:57:27.243Z,65.36
2019-02-17T11:58:35.288Z,68.32
2019-02-17T11:59:43.355Z,67.46
2019-02-17T12:00:51.399Z,69.37
2019-02-17T12:01:59.477Z,67.46
2019-02-17T12:03:08.355Z,69.56
2019-02-17T12:04:15.602Z,64.31
2019-02-17T12:05:23.655Z,63.45
2019-02-17T12:06:31.700Z,63.35
2019-02-17T12:07:39.781Z,65.74
2019-02-17T12:08:48.019Z,65.17
2019-02-17T12:09:55.902Z,63.54
2019-02-17T12:11:03.980Z,62.68
2019-02-17T12:12:13.644Z,64.21
2019-02-17T12:13:20.097Z,62.30
2019-02-17T12:14:28.163Z,62.97
2019-02-17T12:15:36.213Z,66.22
2019-02-17T12:16:44.264Z,66.50
2019-02-17T12:17:52.361Z,64.88
2019-02-17T12:19:00.404Z,62.78
2019-02-17T12:20:08.457Z,60.21
2019-02-17T12:21:16.508Z,61.16
2019-02-17T12:22:24.581Z,60.30
2019-02-17T12:23:32.633Z,60.87
2019-02-17T12:24:40.686Z,63.73
2019-02-17T12:25:48.750Z,61.54
2019-02-17T12:26:56.815Z,60.30
2019-02-17T12:28:04.875Z,62.21
2019-02-17T12:29:12.937Z,60.78
2019-02-17T12:30:20.997Z,59.92
2019-02-17T12:31:29.061Z,57.92
2019-02-17T12:32:37.100Z,58.87
2019-02-17T12:33:45.192Z,59.53
2019-02-17T12:34:53.226Z,58.87
2019-02-17T12:36:01.318Z,60.68
2019-02-17T12:37:09.356Z,60.68
2019-02-17T12:38:17.442Z,61.54
2019-02-17T12:39:25.766Z,62.30
2019-02-17T12:40:33.557Z,63.73
2019-02-17T12:41:41.568Z,62.78
2019-02-17T12:42:51.071Z,61.16
2019-02-17T12:43:57.726Z,60.39
2019-02-17T12:45:05.787Z,61.19
2019-02-17T12:46:13.875Z,60.33
2019-02-17T12:47:21.896Z,60.04
2019-02-17T12:48:29.972Z,59.56
2019-02-17T12:49:38.030Z,61.76
2019-02-17T12:50:46.096Z,58.90
2019-02-17T12:51:54.155Z,61.00
2019-02-17T12:53:02.206Z,60.14
2019-02-17T12:54:10.274Z,60.71
2019-02-17T12:55:18.331Z,59.56
2019-02-17T12:56:26.385Z,58.99
2019-02-17T12:57:34.475Z,61.57
2019-02-17T12:58:42.491Z,61.29
2019-02-17T12:59:50.578Z,58.99
2019-02-17T13:00:58.629Z,61.00
2019-02-17T13:02:06.698Z,58.90
2019-02-17T13:03:14.765Z,59.28
2019-02-17T13:04:22.837Z,59.95
2019-02-17T13:05:30.876Z,58.04
2019-02-17T13:06:38.937Z,60.42
2019-02-17T13:07:47.098Z,60.71
2019-02-17T13:08:55.129Z,59.38
2019-02-17T13:10:03.131Z,57.37
2019-02-17T13:11:11.225Z,56.80
2019-02-17T13:12:19.250Z,56.23
2019-02-17T13:13:27.289Z,58.42
2019-02-17T13:14:35.401Z,56.99
2019-02-17T13:15:43.426Z,57.56
2019-02-17T13:16:51.481Z,56.32
2019-02-17T13:17:59.562Z,57.46
2019-02-17T13:19:07.622Z,55.94
2019-02-17T13:20:15.672Z,56.13
2019-02-17T13:21:23.733Z,56.80
2019-02-17T13:22:31.854Z,57.85
2019-02-17T13:23:39.868Z,56.41
2019-02-17T13:24:48.063Z,57.85
2019-02-17T13:25:55.983Z,57.85
2019-02-17T13:27:04.049Z,58.51
2019-02-17T13:28:12.094Z,56.89
2019-02-17T13:29:20.184Z,58.14
2019-02-17T13:30:28.219Z,55.65
2019-02-17T13:31:36.303Z,55.08
2019-02-17T13:32:44.351Z,57.37
2019-02-17T13:33:52.386Z,56.89
2019-02-17T13:35:00.459Z,55.65
2019-02-17T13:36:08.529Z,56.13
2019-02-17T13:37:16.600Z,57.18
2019-02-17T13:38:24.649Z,56.89
2019-02-17T13:39:32.694Z,55.36
2019-02-17T13:40:40.813Z,56.32
2019-02-17T13:41:48.881Z,54.13
2019-02-17T13:42:56.898Z,55.65
2019-02-17T13:44:04.962Z,54.50
2019-02-17T13:45:13.013Z,55.18
2019-02-17T13:46:21.080Z,53.84
2019-02-17T13:47:29.162Z,54.70
2019-02-17T13:48:37.212Z,54.32
2019-02-17T13:49:45.271Z,54.32
2019-02-17T13:50:53.323Z,55.77
2019-02-17T13:52:01.378Z,55.96
2019-02-17T13:53:11.919Z,54.63
2019-02-17T13:54:17.502Z,54.44
2019-02-17T13:55:25.574Z,55.87
2019-02-17T13:56:33.675Z,54.34
2019-02-17T13:57:41.685Z,54.06
2019-02-17T13:58:49.770Z,55.87
2019-02-17T13:59:57.819Z,55.01
2019-02-17T14:01:05.862Z,55.96
2019-02-17T14:02:13.953Z,53.96
2019-02-17T14:03:21.992Z,52.53
2019-02-17T14:04:30.072Z,52.81
2019-02-17T14:05:38.120Z,53.00
2019-02-17T14:06:46.199Z,53.29
2019-02-17T14:07:54.242Z,53.49
2019-02-17T14:09:02.284Z,53.67
2019-02-17T14:10:10.379Z,54.53
2019-02-17T14:11:18.423Z,53.96
2019-02-17T14:12:26.483Z,54.44
2019-02-17T14:13:34.551Z,52.24
2019-02-17T14:14:42.599Z,52.81
2019-02-17T14:15:50.690Z,54.06
2019-02-17T14:16:58.737Z,53.58
2019-02-17T14:18:06.798Z,54.15
2019-02-17T14:19:14.858Z,55.96
2019-02-17T14:20:22.920Z,53.29
2019-02-17T14:21:30.990Z,52.62
2019-02-17T14:22:39.055Z,53.20
2019-02-17T14:23:47.100Z,54.15
2019-02-17T14:24:55.155Z,51.19
2019-02-17T14:26:03.225Z,52.91
2019-02-17T14:27:11.272Z,53.00
2019-02-17T14:28:19.361Z,52.62
2019-02-17T14:29:27.420Z,52.15
2019-02-17T14:30:35.469Z,53.49
2019-02-17T14:31:43.519Z,54.34
2019-02-17T14:32:51.587Z,54.82
2019-02-17T14:33:59.654Z,53.00
2019-02-17T14:35:07.704Z,52.62
2019-02-17T14:36:15.777Z,53.93